Estación Meteorológica Peña el Pijo (Robertgarden) [ 12/14/19 08:38:14 CET ]

Fecha Hora Presion(HPa) Temp (°C) Humedad % Rocio (°C) Viento ( m/s) Direccion Lluvia 1Hora(mm) Lluvia 24H(mm) LLuvia Total(mm)
2019-Nov-06 01:01:51 1005.600 8.4 71 3.4       1.03 22.27
2019-Nov-06 02:03:13 1005.400 7.6 73 3.1       1.03 22.27
2019-Nov-06 03:11:06 1005.500 6.4 77 2.6       1.03 22.27
2019-Nov-06 04:06:10 1005.200 6.3 79 2.9       1.03 22.27
2019-Nov-06 05:01:41 1005.200 6.9 77 3.1         22.27
2019-Nov-06 06:01:59 1005.300 5.9 77 2.2         22.27
2019-Nov-06 07:01:43 1005.300 3.8 79 0.5         22.27
2019-Nov-06 08:01:43 1005.500 2.6 82 -0.2         22.27
2019-Nov-06 09:01:52 1006.200 5.9 82 3.0         22.27
2019-Nov-06 10:01:56 1006.100 10.3 71 5.3         22.27
2019-Nov-06 11:01:49 1006.100 12.4 61 5.1         22.27
2019-Nov-06 12:01:51 1006.200 12.8 54 3.7         22.27
2019-Nov-06 13:01:46 1005.500 12.0 54 2.9         22.27
2019-Nov-06 14:01:49 1005.000 13.9 50 3.7         22.27
2019-Nov-06 15:01:43 1004.800 13.8 51 3.9         22.27
2019-Nov-06 16:01:46 1004.800 12.4 51 2.5 1.7 NNE     22.27
2019-Nov-06 17:01:43 1004.800 11.6 55 2.8         22.27
2019-Nov-06 18:01:46 1004.900 9.0 61 1.9         22.27
2019-Nov-06 19:01:43 1005.500 6.8 66 0.9         22.27
2019-Nov-06 20:01:59 1005.800 6.3 69 1.1         22.27
2019-Nov-06 21:01:43 1005.500 5.4 73 0.9         22.27
2019-Nov-06 22:01:45 1005.500 5.5 75 1.4         22.27
2019-Nov-06 23:01:42 1005.400 6.6 73 2.1         22.27

Temperatura Máxima:13°    Temperatura Mínima:
Presión Máxima:1006.200 Hpa    Presión Mínima:1004.800 Hpa


Volver